createdAt,value
2018-12-03T00:00:19.163Z,-77
2018-12-03T00:01:19.032Z,-77
2018-12-03T00:02:19.000Z,-77
2018-12-03T00:03:18.775Z,-76
2018-12-03T00:04:18.897Z,-77
2018-12-03T00:05:19.216Z,-74
2018-12-03T00:06:18.880Z,-78
2018-12-03T00:07:18.908Z,-78
2018-12-03T00:08:19.013Z,-76
2018-12-03T00:09:18.789Z,-77
2018-12-03T00:10:19.039Z,-77
2018-12-03T00:11:18.993Z,-76
2018-12-03T00:12:18.921Z,-75
2018-12-03T00:13:18.816Z,-78
2018-12-03T00:14:18.955Z,-78
2018-12-03T00:15:18.847Z,-78
2018-12-03T00:16:18.770Z,-78
2018-12-03T00:17:18.808Z,-78
2018-12-03T00:18:19.267Z,-75
2018-12-03T00:19:18.896Z,-79
2018-12-03T00:20:18.991Z,-78
2018-12-03T00:21:18.903Z,-77
2018-12-03T00:22:18.768Z,-79
2018-12-03T00:23:18.980Z,-77
2018-12-03T00:24:18.996Z,-77
2018-12-03T00:25:18.994Z,-78
2018-12-03T00:26:18.901Z,-77
2018-12-03T00:27:18.766Z,-78
2018-12-03T00:28:18.929Z,-78
2018-12-03T00:29:18.999Z,-76
2018-12-03T00:30:18.804Z,-78
2018-12-03T00:31:18.841Z,-78
2018-12-03T00:32:18.963Z,-77
2018-12-03T00:33:18.845Z,-77
2018-12-03T00:34:19.051Z,-78
2018-12-03T00:35:18.972Z,-78
2018-12-03T00:36:18.742Z,-78
2018-12-03T00:37:18.784Z,-78
2018-12-03T00:38:18.806Z,-77
2018-12-03T00:39:18.836Z,-78
2018-12-03T00:40:18.931Z,-77
2018-12-03T00:41:18.879Z,-75
2018-12-03T00:42:18.783Z,-78
2018-12-03T00:43:18.747Z,-78
2018-12-03T00:44:19.024Z,-74
2018-12-03T00:45:18.762Z,-78
2018-12-03T00:46:18.796Z,-78
2018-12-03T00:47:19.053Z,-77
2018-12-03T00:48:18.944Z,-77
2018-12-03T00:49:18.806Z,-78
2018-12-03T00:50:18.906Z,-77
2018-12-03T00:51:18.914Z,-77
2018-12-03T00:52:18.794Z,-78
2018-12-03T00:53:19.101Z,-75
2018-12-03T00:54:18.935Z,-78
2018-12-03T00:55:18.950Z,-77
2018-12-03T00:56:18.783Z,-78
2018-12-03T00:57:18.912Z,-77
2018-12-03T00:58:18.834Z,-78
2018-12-03T00:59:19.017Z,-77
2018-12-03T01:00:18.937Z,-77
2018-12-03T01:01:18.714Z,-78
2018-12-03T01:02:18.897Z,-77
2018-12-03T01:03:19.035Z,-75
2018-12-03T01:04:18.943Z,-75
2018-12-03T01:05:18.730Z,-78
2018-12-03T01:06:18.903Z,-77
2018-12-03T01:07:18.721Z,-77
2018-12-03T01:08:18.832Z,-78
2018-12-03T01:09:19.106Z,-74
2018-12-03T01:10:18.802Z,-77
2018-12-03T01:11:18.860Z,-77
2018-12-03T01:12:18.917Z,-76
2018-12-03T01:13:18.740Z,-78
2018-12-03T01:14:18.920Z,-78
2018-12-03T01:15:18.688Z,-78
2018-12-03T01:16:18.914Z,-78
2018-12-03T01:17:18.788Z,-79
2018-12-03T01:18:18.718Z,-78
2018-12-03T01:19:18.798Z,-78
2018-12-03T01:20:18.756Z,-78
2018-12-03T01:21:18.811Z,-78
2018-12-03T01:22:18.745Z,-78
2018-12-03T01:23:18.727Z,-78
2018-12-03T01:24:18.734Z,-78
2018-12-03T01:25:18.776Z,-78
2018-12-03T01:26:18.778Z,-78
2018-12-03T01:27:18.737Z,-78
2018-12-03T01:28:19.089Z,-77
2018-12-03T01:29:19.036Z,-75
2018-12-03T01:30:18.787Z,-78
2018-12-03T01:31:18.684Z,-78
2018-12-03T01:32:18.703Z,-78
2018-12-03T01:33:18.724Z,-78
2018-12-03T01:34:18.662Z,-78
2018-12-03T01:35:18.907Z,-76
2018-12-03T01:36:19.124Z,-74
2018-12-03T01:37:18.771Z,-79
2018-12-03T01:38:18.768Z,-80
2018-12-03T01:39:18.710Z,-79
2018-12-03T01:40:18.707Z,-80
2018-12-03T01:41:18.714Z,-79
2018-12-03T01:42:18.638Z,-79
2018-12-03T01:43:18.866Z,-79
2018-12-03T01:44:18.667Z,-79
2018-12-03T01:45:18.781Z,-79
2018-12-03T01:46:18.850Z,-80
2018-12-03T01:47:18.676Z,-79
2018-12-03T01:48:19.548Z,-79
2018-12-03T01:49:18.980Z,-79
2018-12-03T01:50:18.912Z,-79
2018-12-03T01:51:18.801Z,-79
2018-12-03T01:52:18.863Z,-79
2018-12-03T01:53:18.889Z,-79
2018-12-03T01:54:18.759Z,-79
2018-12-03T01:55:18.725Z,-79
2018-12-03T01:56:18.889Z,-79
2018-12-03T01:57:19.052Z,-79
2018-12-03T01:58:18.903Z,-79
2018-12-03T01:59:18.774Z,-78
2018-12-03T02:00:18.817Z,-79
2018-12-03T02:01:18.825Z,-79
2018-12-03T02:02:18.724Z,-80
2018-12-03T02:03:18.788Z,-79
2018-12-03T02:04:18.737Z,-79
2018-12-03T02:05:18.713Z,-78
2018-12-03T02:06:18.746Z,-78
2018-12-03T02:07:18.867Z,-79
2018-12-03T02:08:18.930Z,-79
2018-12-03T02:09:18.802Z,-79
2018-12-03T02:10:18.730Z,-79
2018-12-03T02:11:18.657Z,-79
2018-12-03T02:12:18.848Z,-80
2018-12-03T02:13:18.685Z,-79
2018-12-03T02:14:19.203Z,-79
2018-12-03T02:15:18.994Z,-79
2018-12-03T02:16:18.693Z,-79
2018-12-03T02:17:18.667Z,-79
2018-12-03T02:18:18.734Z,-78
2018-12-03T02:19:18.957Z,-78
2018-12-03T02:20:18.705Z,-79
2018-12-03T02:21:18.678Z,-78
2018-12-03T02:22:18.751Z,-79
2018-12-03T02:23:18.778Z,-79
2018-12-03T02:24:18.844Z,-79
2018-12-03T02:25:18.718Z,-79
2018-12-03T02:26:18.732Z,-79
2018-12-03T02:27:18.719Z,-79
2018-12-03T02:28:18.719Z,-79
2018-12-03T02:29:18.646Z,-79
2018-12-03T02:30:18.675Z,-78
2018-12-03T02:31:18.717Z,-79
2018-12-03T02:32:18.875Z,-79
2018-12-03T02:33:18.703Z,-79
2018-12-03T02:34:18.713Z,-79
2018-12-03T02:35:18.693Z,-79
2018-12-03T02:36:18.622Z,-80
2018-12-03T02:37:18.762Z,-79
2018-12-03T02:38:18.885Z,-79
2018-12-03T02:39:18.870Z,-79
2018-12-03T02:40:18.707Z,-79
2018-12-03T02:41:18.676Z,-80
2018-12-03T02:42:18.807Z,-80
2018-12-03T02:43:18.796Z,-79
2018-12-03T02:44:18.657Z,-79
2018-12-03T02:45:18.776Z,-79
2018-12-03T02:46:18.819Z,-80
2018-12-03T02:47:18.677Z,-80
2018-12-03T02:48:18.752Z,-80
2018-12-03T02:49:18.671Z,-80
2018-12-03T02:50:18.728Z,-79
2018-12-03T02:51:18.680Z,-80
2018-12-03T02:52:18.647Z,-79
2018-12-03T02:53:18.637Z,-80
2018-12-03T02:54:18.638Z,-79
2018-12-03T02:55:18.695Z,-79
2018-12-03T02:56:18.623Z,-80
2018-12-03T02:57:18.660Z,-79
2018-12-03T02:58:18.630Z,-79
2018-12-03T02:59:18.644Z,-80
2018-12-03T03:00:18.601Z,-79
2018-12-03T03:01:18.660Z,-79
2018-12-03T03:02:18.931Z,-79
2018-12-03T03:03:18.656Z,-80
2018-12-03T03:04:18.592Z,-80
2018-12-03T03:05:18.616Z,-80
2018-12-03T03:06:18.585Z,-80
2018-12-03T03:07:18.732Z,-80
2018-12-03T03:08:18.584Z,-80
2018-12-03T03:09:18.664Z,-79
2018-12-03T03:10:18.606Z,-79
2018-12-03T03:11:18.831Z,-80
2018-12-03T03:12:18.623Z,-80
2018-12-03T03:13:18.733Z,-80
2018-12-03T03:14:18.794Z,-79
2018-12-03T03:15:18.874Z,-79
2018-12-03T03:16:18.725Z,-80
2018-12-03T03:17:18.638Z,-80
2018-12-03T03:18:18.763Z,-80
2018-12-03T03:19:18.775Z,-80
2018-12-03T03:20:18.866Z,-80
2018-12-03T03:21:18.698Z,-80
2018-12-03T03:22:18.658Z,-80
2018-12-03T03:23:18.658Z,-80
2018-12-03T03:24:18.638Z,-79
2018-12-03T03:25:18.771Z,-80
2018-12-03T03:26:18.583Z,-80
2018-12-03T03:27:18.708Z,-80
2018-12-03T03:28:18.596Z,-79
2018-12-03T03:29:18.566Z,-79
2018-12-03T03:30:18.816Z,-79
2018-12-03T03:31:18.634Z,-80
2018-12-03T03:32:18.628Z,-80
2018-12-03T03:33:18.769Z,-80
2018-12-03T03:34:18.654Z,-79
2018-12-03T03:35:18.584Z,-80
2018-12-03T03:36:18.724Z,-79
2018-12-03T03:37:18.621Z,-79
2018-12-03T03:38:18.599Z,-80
2018-12-03T03:39:18.694Z,-79
2018-12-03T03:40:18.584Z,-80
2018-12-03T03:41:18.706Z,-80
2018-12-03T03:42:18.544Z,-79
2018-12-03T03:43:18.766Z,-80
2018-12-03T03:44:18.687Z,-80
2018-12-03T03:45:18.765Z,-80
2018-12-03T03:46:18.653Z,-80
2018-12-03T03:47:18.700Z,-80
2018-12-03T03:48:18.854Z,-80
2018-12-03T03:49:18.559Z,-79
2018-12-03T03:50:18.664Z,-79
2018-12-03T03:51:18.879Z,-79
2018-12-03T03:52:18.600Z,-80
2018-12-03T03:53:18.635Z,-80
2018-12-03T03:54:18.533Z,-80
2018-12-03T03:55:18.545Z,-80
2018-12-03T03:56:18.602Z,-80
2018-12-03T03:57:18.746Z,-80
2018-12-03T03:58:18.755Z,-80
2018-12-03T03:59:18.729Z,-79
2018-12-03T04:00:18.566Z,-80
2018-12-03T04:01:18.877Z,-79
2018-12-03T04:02:18.819Z,-80
2018-12-03T04:03:18.494Z,-80
2018-12-03T04:04:18.734Z,-80
2018-12-03T04:05:18.923Z,-80
2018-12-03T04:06:18.681Z,-80
2018-12-03T04:07:18.487Z,-80
2018-12-03T04:08:18.608Z,-80
2018-12-03T04:09:18.648Z,-80
2018-12-03T04:10:18.738Z,-80
2018-12-03T04:11:18.557Z,-79
2018-12-03T04:12:18.547Z,-79
2018-12-03T04:13:18.861Z,-79
2018-12-03T04:14:18.662Z,-79
2018-12-03T04:15:18.782Z,-79
2018-12-03T04:16:18.586Z,-79
2018-12-03T04:17:18.630Z,-79
2018-12-03T04:18:18.626Z,-79
2018-12-03T04:19:18.501Z,-80
2018-12-03T04:20:18.716Z,-79
2018-12-03T04:21:18.716Z,-79
2018-12-03T04:22:18.585Z,-79
2018-12-03T04:23:18.708Z,-79
2018-12-03T04:24:18.837Z,-79
2018-12-03T04:25:19.355Z,-79
2018-12-03T04:26:19.318Z,-79
2018-12-03T04:27:18.580Z,-80
2018-12-03T04:28:18.479Z,-79
2018-12-03T04:29:18.710Z,-79
2018-12-03T04:30:18.720Z,-79
2018-12-03T04:31:18.591Z,-79
2018-12-03T04:32:18.620Z,-80
2018-12-03T04:33:18.501Z,-80
2018-12-03T04:34:18.513Z,-80
2018-12-03T04:35:18.507Z,-80
2018-12-03T04:36:18.642Z,-79
2018-12-03T04:37:18.525Z,-79
2018-12-03T04:38:18.467Z,-80
2018-12-03T04:39:18.529Z,-80
2018-12-03T04:40:18.607Z,-80
2018-12-03T04:41:18.472Z,-79
2018-12-03T04:42:18.611Z,-80
2018-12-03T04:43:18.572Z,-79
2018-12-03T04:44:18.580Z,-80
2018-12-03T04:45:18.554Z,-79
2018-12-03T04:46:18.492Z,-79
2018-12-03T04:47:18.527Z,-80
2018-12-03T04:48:18.601Z,-79
2018-12-03T04:49:18.461Z,-78
2018-12-03T04:50:18.682Z,-79
2018-12-03T04:51:18.523Z,-79
2018-12-03T04:52:18.493Z,-79
2018-12-03T04:53:18.634Z,-79
2018-12-03T04:54:19.349Z,-79
2018-12-03T04:55:18.515Z,-79
2018-12-03T04:56:18.562Z,-79
2018-12-03T04:57:18.612Z,-79
2018-12-03T04:58:18.580Z,-79
2018-12-03T04:59:18.501Z,-79
2018-12-03T05:00:18.670Z,-79
2018-12-03T05:01:18.880Z,-79
2018-12-03T05:02:18.795Z,-79
2018-12-03T05:03:18.675Z,-80
2018-12-03T05:04:18.471Z,-80
2018-12-03T05:05:18.565Z,-79
2018-12-03T05:06:18.688Z,-80
2018-12-03T05:07:18.447Z,-79
2018-12-03T05:08:18.668Z,-80
2018-12-03T05:09:18.609Z,-79
2018-12-03T05:10:18.512Z,-79
2018-12-03T05:11:18.656Z,-79
2018-12-03T05:12:18.573Z,-79
2018-12-03T05:13:19.317Z,-79
2018-12-03T05:14:18.529Z,-78
2018-12-03T05:15:18.542Z,-78
2018-12-03T05:16:18.526Z,-78
2018-12-03T05:17:18.610Z,-78
2018-12-03T05:18:18.441Z,-78
2018-12-03T05:19:18.624Z,-77
2018-12-03T05:20:18.611Z,-78
2018-12-03T05:21:18.551Z,-78
2018-12-03T05:22:18.443Z,-79
2018-12-03T05:23:18.479Z,-77
2018-12-03T05:24:18.677Z,-77
2018-12-03T05:25:20.063Z,-78
2018-12-03T05:26:18.566Z,-79
2018-12-03T05:27:18.613Z,-77
2018-12-03T05:28:18.479Z,-78
2018-12-03T05:29:18.667Z,-78
2018-12-03T05:30:18.414Z,-79
2018-12-03T05:31:18.462Z,-79
2018-12-03T05:32:18.479Z,-79
2018-12-03T05:33:18.571Z,-79
2018-12-03T05:34:18.456Z,-79
2018-12-03T05:35:18.515Z,-79
2018-12-03T05:36:18.492Z,-80
2018-12-03T05:37:18.636Z,-79
2018-12-03T05:38:18.402Z,-79
2018-12-03T05:39:18.525Z,-79
2018-12-03T05:40:18.658Z,-77
2018-12-03T05:41:18.510Z,-78
2018-12-03T05:42:18.412Z,-78
2018-12-03T05:43:18.463Z,-78
2018-12-03T05:44:19.332Z,-74
2018-12-03T05:45:18.466Z,-78
2018-12-03T05:46:18.468Z,-78
2018-12-03T05:47:18.465Z,-78
2018-12-03T05:48:18.541Z,-77
2018-12-03T05:49:18.503Z,-77
2018-12-03T05:50:18.465Z,-78
2018-12-03T05:51:18.577Z,-78
2018-12-03T05:52:18.524Z,-78
2018-12-03T05:53:18.549Z,-77
2018-12-03T05:54:18.421Z,-78
2018-12-03T05:55:18.676Z,-76
2018-12-03T05:56:18.378Z,-78
2018-12-03T05:57:18.461Z,-78
2018-12-03T05:58:18.547Z,-78
2018-12-03T05:59:18.532Z,-77
2018-12-03T06:00:18.485Z,-77
2018-12-03T06:01:18.449Z,-78
2018-12-03T06:02:18.767Z,-77
2018-12-03T06:03:18.442Z,-77
2018-12-03T06:04:18.728Z,-75
2018-12-03T06:05:19.231Z,-74
2018-12-03T06:06:18.422Z,-78
2018-12-03T06:07:18.472Z,-77
2018-12-03T06:08:18.504Z,-78
2018-12-03T06:09:18.648Z,-78
2018-12-03T06:10:18.441Z,-78
2018-12-03T06:11:18.462Z,-78
2018-12-03T06:12:18.647Z,-76
2018-12-03T06:13:18.573Z,-77
2018-12-03T06:14:18.383Z,-78
2018-12-03T06:15:18.571Z,-77
2018-12-03T06:16:18.352Z,-77
2018-12-03T06:17:18.379Z,-78
2018-12-03T06:18:18.311Z,-78
2018-12-03T06:19:18.376Z,-78
2018-12-03T06:20:18.367Z,-78
2018-12-03T06:21:18.660Z,-78
2018-12-03T06:22:18.355Z,-78
2018-12-03T06:23:18.383Z,-78
2018-12-03T06:24:18.330Z,-77
2018-12-03T06:25:18.472Z,-78
2018-12-03T06:26:18.482Z,-78
2018-12-03T06:27:18.385Z,-78
2018-12-03T06:28:18.383Z,-78
2018-12-03T06:29:19.230Z,-75
2018-12-03T06:30:18.399Z,-78
2018-12-03T06:31:18.572Z,-77
2018-12-03T06:32:18.491Z,-78
2018-12-03T06:33:18.686Z,-77
2018-12-03T06:34:19.458Z,-78
2018-12-03T06:35:18.400Z,-79
2018-12-03T06:36:18.398Z,-78
2018-12-03T06:37:18.559Z,-77
2018-12-03T06:38:18.480Z,-79
2018-12-03T06:39:18.545Z,-79
2018-12-03T06:40:19.259Z,-75
2018-12-03T06:41:18.724Z,-77
2018-12-03T06:42:18.583Z,-78
2018-12-03T06:43:18.339Z,-79
2018-12-03T06:44:18.323Z,-80
2018-12-03T06:45:18.408Z,-80
2018-12-03T06:46:18.605Z,-78
2018-12-03T06:47:18.495Z,-78
2018-12-03T06:48:18.717Z,-77
2018-12-03T06:49:18.593Z,-77
2018-12-03T06:50:18.347Z,-79
2018-12-03T06:51:18.335Z,-79
2018-12-03T06:52:18.528Z,-78
2018-12-03T06:53:18.500Z,-79
2018-12-03T06:54:18.750Z,-77
2018-12-03T06:55:18.383Z,-79
2018-12-03T06:56:18.422Z,-79
2018-12-03T06:57:18.380Z,-79
2018-12-03T06:58:18.351Z,-79
2018-12-03T06:59:18.503Z,-79
2018-12-03T07:00:18.427Z,-79
2018-12-03T07:01:18.367Z,-79
2018-12-03T07:02:18.466Z,-79
2018-12-03T07:03:18.422Z,-79
2018-12-03T07:04:18.546Z,-77
2018-12-03T07:05:18.492Z,-79
2018-12-03T07:06:18.390Z,-79
2018-12-03T07:07:18.481Z,-80
2018-12-03T07:08:18.569Z,-78
2018-12-03T07:09:18.647Z,-77
2018-12-03T07:10:18.380Z,-79
2018-12-03T07:11:18.338Z,-79
2018-12-03T07:12:18.359Z,-79
2018-12-03T07:13:18.499Z,-79
2018-12-03T07:14:18.374Z,-79
2018-12-03T07:15:18.370Z,-79
2018-12-03T07:16:18.342Z,-79
2018-12-03T07:17:18.379Z,-79
2018-12-03T07:18:18.478Z,-79
2018-12-03T07:19:18.447Z,-79
2018-12-03T07:20:18.452Z,-79
2018-12-03T07:21:19.189Z,-79
2018-12-03T07:22:18.736Z,-79
2018-12-03T07:23:18.437Z,-79
2018-12-03T07:24:18.387Z,-79
2018-12-03T07:25:18.260Z,-79
2018-12-03T07:26:18.363Z,-79
2018-12-03T07:27:18.375Z,-79
2018-12-03T07:28:18.388Z,-79
2018-12-03T07:29:18.485Z,-79
2018-12-03T07:30:18.327Z,-79
2018-12-03T07:31:18.529Z,-79
2018-12-03T07:32:18.300Z,-79
2018-12-03T07:33:18.485Z,-79
2018-12-03T07:34:18.254Z,-79
2018-12-03T07:35:19.071Z,-77
2018-12-03T07:36:18.293Z,-79
2018-12-03T07:37:18.294Z,-79
2018-12-03T07:38:19.126Z,-77
2018-12-03T07:39:18.468Z,-78
2018-12-03T07:40:18.482Z,-77
2018-12-03T07:41:18.320Z,-79
2018-12-03T07:42:18.328Z,-79
2018-12-03T07:43:18.377Z,-79
2018-12-03T07:44:18.346Z,-78
2018-12-03T07:45:18.468Z,-77
2018-12-03T07:46:18.438Z,-78
2018-12-03T07:47:18.312Z,-79
2018-12-03T07:48:18.320Z,-79
2018-12-03T07:49:18.309Z,-78
2018-12-03T07:50:18.689Z,-76
2018-12-03T07:51:18.303Z,-79
2018-12-03T07:52:18.329Z,-79
2018-12-03T07:53:18.343Z,-79
2018-12-03T07:54:18.282Z,-79
2018-12-03T07:55:18.315Z,-79
2018-12-03T07:56:18.273Z,-79
2018-12-03T07:57:18.242Z,-79
2018-12-03T07:58:18.307Z,-79
2018-12-03T07:59:18.242Z,-79
2018-12-03T08:00:18.310Z,-79
2018-12-03T08:01:18.324Z,-79
2018-12-03T08:02:18.297Z,-79
2018-12-03T08:03:18.245Z,-79
2018-12-03T08:04:18.323Z,-79
2018-12-03T08:05:18.351Z,-79
2018-12-03T08:06:18.273Z,-79
2018-12-03T08:07:18.331Z,-79
2018-12-03T08:08:18.547Z,-78
2018-12-03T08:09:18.430Z,-79
2018-12-03T08:10:18.400Z,-79
2018-12-03T08:11:18.492Z,-77
2018-12-03T08:12:18.367Z,-78
2018-12-03T08:13:18.320Z,-79
2018-12-03T08:14:18.467Z,-79
2018-12-03T08:15:18.335Z,-80
2018-12-03T08:16:18.274Z,-81
2018-12-03T08:17:18.555Z,-81
2018-12-03T08:18:20.508Z,-80
2018-12-03T08:19:18.604Z,-81
2018-12-03T08:20:18.426Z,-81
2018-12-03T08:21:18.565Z,-81
2018-12-03T08:22:18.535Z,-81
2018-12-03T08:23:18.338Z,-81
2018-12-03T08:24:18.362Z,-81
2018-12-03T08:25:19.145Z,-81
2018-12-03T08:26:20.729Z,-80
2018-12-03T08:27:18.438Z,-81
2018-12-03T08:28:18.360Z,-81
2018-12-03T08:29:18.213Z,-81
2018-12-03T08:30:18.439Z,-81
2018-12-03T08:31:18.468Z,-81
2018-12-03T08:32:18.406Z,-81
2018-12-03T08:33:18.308Z,-81
2018-12-03T08:34:18.233Z,-81
2018-12-03T08:35:18.344Z,-81
2018-12-03T08:36:18.452Z,-81
2018-12-03T08:37:18.309Z,-80
2018-12-03T08:38:18.328Z,-81
2018-12-03T08:39:18.265Z,-80
2018-12-03T08:40:18.379Z,-79
2018-12-03T08:41:18.607Z,-79
2018-12-03T08:42:19.414Z,-80
2018-12-03T08:43:18.308Z,-79
2018-12-03T08:44:18.285Z,-80
2018-12-03T08:45:18.483Z,-79
2018-12-03T08:46:18.466Z,-78
2018-12-03T08:47:18.220Z,-79
2018-12-03T08:48:18.265Z,-80
2018-12-03T08:49:18.324Z,-80
2018-12-03T08:50:18.272Z,-80
2018-12-03T08:51:18.560Z,-80
2018-12-03T08:52:18.208Z,-80
2018-12-03T08:53:19.254Z,-78
2018-12-03T08:54:18.339Z,-79
2018-12-03T08:55:18.330Z,-79
2018-12-03T08:56:18.425Z,-79
2018-12-03T08:57:19.543Z,-79
2018-12-03T08:58:21.474Z,-78
2018-12-03T08:59:18.533Z,-77
2018-12-03T09:00:19.042Z,-79
2018-12-03T09:01:18.577Z,-79
2018-12-03T09:02:18.340Z,-78
2018-12-03T09:03:18.225Z,-80
2018-12-03T09:04:18.413Z,-77
2018-12-03T09:05:22.710Z,-77
2018-12-03T09:06:20.837Z,-82
2018-12-03T09:07:20.746Z,-82
2018-12-03T09:08:18.208Z,-82
2018-12-03T09:09:18.291Z,-82
2018-12-03T09:10:18.578Z,-82
2018-12-03T09:11:18.400Z,-81
2018-12-03T09:12:22.348Z,-81
2018-12-03T09:13:18.400Z,-81
2018-12-03T09:14:18.436Z,-82
2018-12-03T09:15:18.372Z,-82
2018-12-03T09:16:18.196Z,-82
2018-12-03T09:17:18.252Z,-81
2018-12-03T09:18:19.064Z,-82
2018-12-03T09:19:19.061Z,-82
2018-12-03T09:20:18.395Z,-81
2018-12-03T09:21:18.442Z,-82
2018-12-03T09:22:18.298Z,-82
2018-12-03T09:23:21.754Z,-82
2018-12-03T09:24:18.392Z,-82
2018-12-03T09:25:19.310Z,-81
2018-12-03T09:26:18.268Z,-81
2018-12-03T09:27:18.481Z,-81
2018-12-03T09:28:18.304Z,-81
2018-12-03T09:29:18.298Z,-81
2018-12-03T09:30:18.259Z,-82
2018-12-03T09:31:18.299Z,-81
2018-12-03T09:32:18.249Z,-81
2018-12-03T09:33:18.253Z,-81
2018-12-03T09:34:18.325Z,-81
2018-12-03T09:35:21.505Z,-81
2018-12-03T09:36:18.251Z,-79
2018-12-03T09:37:19.300Z,-79
2018-12-03T09:38:18.235Z,-78
2018-12-03T09:39:18.243Z,-78
2018-12-03T09:40:18.281Z,-78
2018-12-03T09:41:18.202Z,-78
2018-12-03T09:42:18.223Z,-78
2018-12-03T09:43:18.339Z,-78
2018-12-03T09:44:18.327Z,-78
2018-12-03T09:45:18.354Z,-78
2018-12-03T09:46:18.176Z,-78
2018-12-03T09:47:18.213Z,-78
2018-12-03T09:48:18.227Z,-78
2018-12-03T09:49:18.347Z,-78
2018-12-03T09:50:18.387Z,-78
2018-12-03T09:51:18.201Z,-78
2018-12-03T09:52:18.397Z,-78
2018-12-03T09:53:18.113Z,-78
2018-12-03T09:54:18.121Z,-78
2018-12-03T09:55:18.242Z,-78
2018-12-03T09:56:18.169Z,-78
2018-12-03T09:57:18.448Z,-78
2018-12-03T09:58:18.146Z,-78
2018-12-03T09:59:18.307Z,-78
2018-12-03T10:00:18.229Z,-78
2018-12-03T10:01:18.271Z,-78
2018-12-03T10:02:18.294Z,-78
2018-12-03T10:03:18.447Z,-78
2018-12-03T10:04:18.149Z,-78
2018-12-03T10:05:18.228Z,-78
2018-12-03T10:06:18.223Z,-78
2018-12-03T10:07:18.266Z,-78
2018-12-03T10:08:18.167Z,-78
2018-12-03T10:09:18.241Z,-78
2018-12-03T10:10:18.291Z,-78
2018-12-03T10:11:18.613Z,-78
2018-12-03T10:12:18.690Z,-78
2018-12-03T10:13:18.458Z,-78
2018-12-03T10:14:18.211Z,-78
2018-12-03T10:15:18.277Z,-77
2018-12-03T10:16:18.123Z,-77
2018-12-03T10:17:18.229Z,-77
2018-12-03T10:18:19.154Z,-77
2018-12-03T10:19:18.298Z,-78
2018-12-03T10:20:18.423Z,-78
2018-12-03T10:21:18.156Z,-77
2018-12-03T10:22:18.246Z,-78
2018-12-03T10:23:18.374Z,-78
2018-12-03T10:24:18.516Z,-78
2018-12-03T10:25:18.285Z,-77
2018-12-03T10:26:18.119Z,-78
2018-12-03T10:27:18.245Z,-77
2018-12-03T10:28:18.829Z,-77
2018-12-03T10:29:18.347Z,-77
2018-12-03T10:30:18.336Z,-77
2018-12-03T10:31:18.074Z,-77
2018-12-03T10:32:18.306Z,-78
2018-12-03T10:33:18.259Z,-77
2018-12-03T10:34:18.278Z,-78
2018-12-03T10:35:18.326Z,-78
2018-12-03T10:36:18.146Z,-78
2018-12-03T10:37:18.152Z,-78
2018-12-03T10:38:18.154Z,-78
2018-12-03T10:39:18.272Z,-78
2018-12-03T10:40:21.364Z,-77
2018-12-03T10:41:18.037Z,-77
2018-12-03T10:42:18.387Z,-78
2018-12-03T10:43:18.199Z,-76
2018-12-03T10:44:18.229Z,-76
2018-12-03T10:45:18.151Z,-77
2018-12-03T10:46:18.055Z,-78
2018-12-03T10:47:18.702Z,-75
2018-12-03T10:48:18.276Z,-76
2018-12-03T10:49:18.258Z,-76
2018-12-03T10:50:22.763Z,-77
2018-12-03T10:51:18.290Z,-76
2018-12-03T10:52:18.072Z,-77
2018-12-03T10:53:18.334Z,-76
2018-12-03T10:54:18.341Z,-76
2018-12-03T10:55:18.447Z,-76
2018-12-03T10:56:18.111Z,-78
2018-12-03T10:57:18.337Z,-78
2018-12-03T10:58:18.073Z,-77
2018-12-03T10:59:18.057Z,-77
2018-12-03T11:00:18.063Z,-77
2018-12-03T11:01:18.096Z,-78
2018-12-03T11:02:18.026Z,-77
2018-12-03T11:03:18.046Z,-77
2018-12-03T11:04:18.273Z,-76
2018-12-03T11:05:18.026Z,-77
2018-12-03T11:06:18.396Z,-75
2018-12-03T11:07:18.161Z,-76
2018-12-03T11:08:18.027Z,-78
2018-12-03T11:09:18.035Z,-76
2018-12-03T11:10:18.069Z,-77
2018-12-03T11:11:18.187Z,-78
2018-12-03T11:12:18.384Z,-76
2018-12-03T11:13:18.254Z,-77
2018-12-03T11:14:18.279Z,-76
2018-12-03T11:15:18.007Z,-77
2018-12-03T11:16:18.098Z,-77
2018-12-03T11:17:17.989Z,-77
2018-12-03T11:18:18.042Z,-77
2018-12-03T11:19:17.999Z,-77
2018-12-03T11:20:18.064Z,-77
2018-12-03T11:21:18.391Z,-75
2018-12-03T11:22:18.260Z,-77
2018-12-03T11:23:18.083Z,-77
2018-12-03T11:24:18.018Z,-77
2018-12-03T11:25:18.307Z,-75
2018-12-03T11:26:18.009Z,-78
2018-12-03T11:27:18.231Z,-77
2018-12-03T11:28:18.095Z,-77
2018-12-03T11:29:18.095Z,-77
2018-12-03T11:30:18.354Z,-76
2018-12-03T11:31:18.406Z,-76
2018-12-03T11:32:17.987Z,-78
2018-12-03T11:33:18.031Z,-78
2018-12-03T11:34:18.143Z,-76
2018-12-03T11:35:18.338Z,-76
2018-12-03T11:36:18.241Z,-76
2018-12-03T11:37:18.081Z,-77
2018-12-03T11:38:18.849Z,-75
2018-12-03T11:39:18.241Z,-77
2018-12-03T11:40:17.971Z,-78
2018-12-03T11:41:18.034Z,-77
2018-12-03T11:42:18.354Z,-75
2018-12-03T11:43:18.360Z,-75
2018-12-03T11:44:17.969Z,-77
2018-12-03T11:45:18.201Z,-77
2018-12-03T11:46:18.014Z,-78
2018-12-03T11:47:18.155Z,-77
2018-12-03T11:48:18.127Z,-77
2018-12-03T11:49:18.405Z,-76
2018-12-03T11:50:18.061Z,-78
2018-12-03T11:51:17.952Z,-77
2018-12-03T11:52:18.215Z,-77
2018-12-03T11:53:18.749Z,-77
2018-12-03T11:54:18.141Z,-77
2018-12-03T11:55:18.081Z,-76
2018-12-03T11:56:18.253Z,-77
2018-12-03T11:57:18.015Z,-77
2018-12-03T11:58:25.802Z,-75
2018-12-03T11:59:18.365Z,-75
2018-12-03T12:00:18.021Z,-77
2018-12-03T12:01:18.095Z,-77
2018-12-03T12:02:18.460Z,-77
2018-12-03T12:03:18.193Z,-77
2018-12-03T12:04:18.147Z,-77
2018-12-03T12:05:18.068Z,-77
2018-12-03T12:06:18.367Z,-77
2018-12-03T12:07:18.190Z,-78
2018-12-03T12:08:18.058Z,-77
2018-12-03T12:09:21.595Z,-77
2018-12-03T12:10:21.360Z,-77
2018-12-03T12:11:18.384Z,-77
2018-12-03T12:12:18.121Z,-76
2018-12-03T12:13:18.142Z,-76
2018-12-03T12:14:18.467Z,-76
2018-12-03T12:15:18.192Z,-75
2018-12-03T12:16:18.227Z,-75
2018-12-03T12:17:18.201Z,-75
2018-12-03T12:18:18.240Z,-75
2018-12-03T12:19:18.142Z,-76
2018-12-03T12:20:18.076Z,-75
2018-12-03T12:21:17.921Z,-76
2018-12-03T12:22:17.930Z,-77
2018-12-03T12:23:17.939Z,-77
2018-12-03T12:24:17.943Z,-77
2018-12-03T12:25:18.382Z,-75
2018-12-03T12:26:17.985Z,-77
2018-12-03T12:27:18.090Z,-77
2018-12-03T12:28:17.937Z,-77
2018-12-03T12:29:17.989Z,-77
2018-12-03T12:30:18.056Z,-77
2018-12-03T12:31:18.097Z,-77
2018-12-03T12:32:18.316Z,-76
2018-12-03T12:33:18.557Z,-77
2018-12-03T12:34:18.011Z,-77
2018-12-03T12:35:18.362Z,-77
2018-12-03T12:36:18.751Z,-74
2018-12-03T12:37:18.030Z,-77
2018-12-03T12:38:18.021Z,-77
2018-12-03T12:39:17.964Z,-77
2018-12-03T12:40:18.002Z,-77
2018-12-03T12:41:17.937Z,-77
2018-12-03T12:42:17.903Z,-77
2018-12-03T12:43:17.985Z,-77
2018-12-03T12:44:17.942Z,-78
2018-12-03T12:45:18.038Z,-77
2018-12-03T12:46:17.995Z,-77
2018-12-03T12:47:17.914Z,-77
2018-12-03T12:48:18.060Z,-77
2018-12-03T12:49:17.986Z,-77
2018-12-03T12:50:18.058Z,-78
2018-12-03T12:51:18.091Z,-77
2018-12-03T12:52:18.244Z,-77
2018-12-03T12:53:17.942Z,-78
2018-12-03T12:54:17.958Z,-77
2018-12-03T12:55:18.061Z,-77
2018-12-03T12:56:18.308Z,-77
2018-12-03T12:57:17.913Z,-77
2018-12-03T12:58:18.211Z,-77
2018-12-03T12:59:17.920Z,-77
2018-12-03T13:00:18.100Z,-77
2018-12-03T13:01:18.197Z,-77
2018-12-03T13:02:18.376Z,-77
2018-12-03T13:03:18.021Z,-77
2018-12-03T13:04:18.026Z,-77
2018-12-03T13:05:18.138Z,-77
2018-12-03T13:06:18.336Z,-77
2018-12-03T13:07:18.171Z,-77
2018-12-03T13:08:18.003Z,-77
2018-12-03T13:09:18.064Z,-77
2018-12-03T13:10:17.884Z,-77
2018-12-03T13:11:18.045Z,-77
2018-12-03T13:12:18.082Z,-78
2018-12-03T13:13:17.938Z,-77
2018-12-03T13:14:17.963Z,-77
2018-12-03T13:15:18.380Z,-77
2018-12-03T13:16:18.182Z,-78
2018-12-03T13:17:17.983Z,-78
2018-12-03T13:18:18.731Z,-76
2018-12-03T13:19:17.891Z,-77
2018-12-03T13:20:18.036Z,-77
2018-12-03T13:21:17.958Z,-77
2018-12-03T13:22:17.913Z,-77
2018-12-03T13:23:18.287Z,-77
2018-12-03T13:24:17.979Z,-77
2018-12-03T13:25:18.265Z,-77
2018-12-03T13:26:17.923Z,-77
2018-12-03T13:27:17.914Z,-77
2018-12-03T13:28:18.051Z,-77
2018-12-03T13:29:17.903Z,-77
2018-12-03T13:30:17.912Z,-77
2018-12-03T13:31:17.890Z,-78
2018-12-03T13:32:18.203Z,-77
2018-12-03T13:33:17.906Z,-78
2018-12-03T13:34:17.896Z,-77
2018-12-03T13:35:17.866Z,-77
2018-12-03T13:36:18.216Z,-77
2018-12-03T13:37:18.118Z,-77
2018-12-03T13:38:17.880Z,-77
2018-12-03T13:39:18.162Z,-77
2018-12-03T13:40:17.866Z,-77
2018-12-03T13:41:18.014Z,-77
2018-12-03T13:42:17.918Z,-77
2018-12-03T13:43:17.826Z,-77
2018-12-03T13:44:17.890Z,-77
2018-12-03T13:45:17.836Z,-77
2018-12-03T13:46:17.845Z,-77